Time;durP1;ratioP1;P1;durP2;ratioP2;P2;SDS_P1;SDS_P2;PMS_P1;PMS_P2;Temp;Humidity;BMP_temperature;BMP_pressure;BME280_temperature;BME280_humidity;BME280_pressure;Samples;Min_cycle;Max_cycle;Signal;HPM_P1;HPM_P2
2023/06/24 00:01:24;;;;;;;21.50;18.90;;;;;;;17.14;100.00;102277.09;5055053;28;20067;-46
2023/06/24 00:03:53;;;;;;;20.73;17.05;;;;;;;17.10;100.00;102273.53;5055407;28;20070;-47
2023/06/24 00:06:22;;;;;;;22.58;18.13;;;;;;;17.00;100.00;102276.75;5054340;28;20362;-47
2023/06/24 00:08:48;;;;;;;21.27;17.65;;;;;;;16.86;100.00;102278.94;5055279;28;20029;-45
2023/06/24 00:11:15;;;;;;;19.30;16.60;;;;;;;16.77;100.00;102283.06;5054671;28;20075;-47
2023/06/24 00:13:41;;;;;;;20.60;17.13;;;;;;;16.72;100.00;102281.16;5054160;28;20033;-47
2023/06/24 00:16:06;;;;;;;18.88;16.88;;;;;;;16.60;100.00;102281.72;5054991;28;20020;-47
2023/06/24 00:18:32;;;;;;;22.67;18.50;;;;;;;16.57;100.00;102279.03;5054271;28;20040;-48
2023/06/24 00:20:58;;;;;;;23.50;17.70;;;;;;;16.50;100.00;102279.69;5054254;28;20045;-47
2023/06/24 00:23:24;;;;;;;20.52;18.33;;;;;;;16.48;100.00;102284.88;5054698;28;20045;-48
2023/06/24 00:25:54;;;;;;;19.95;17.85;;;;;;;16.46;100.00;102289.13;5054693;28;20100;-48
2023/06/24 00:28:19;;;;;;;19.95;17.63;;;;;;;16.43;100.00;102284.72;5054101;28;20468;-43
2023/06/24 00:30:45;;;;;;;22.35;18.67;;;;;;;16.35;100.00;102280.16;5054466;28;20036;-42
2023/06/24 00:33:13;;;;;;;22.80;18.15;;;;;;;16.33;100.00;102282.69;5054391;28;20029;-43
2023/06/24 00:35:38;;;;;;;24.00;18.42;;;;;;;16.30;100.00;102283.50;5053727;28;20025;-44
2023/06/24 00:38:04;;;;;;;19.95;17.77;;;;;;;16.22;100.00;102292.81;5054496;28;20031;-43
2023/06/24 00:40:29;;;;;;;24.17;19.20;;;;;;;16.22;100.00;102289.34;5053631;28;20029;-41
2023/06/24 00:42:56;;;;;;;20.00;17.90;;;;;;;16.12;100.00;102294.25;5054592;28;20437;-42
2023/06/24 00:45:22;;;;;;;22.45;19.25;;;;;;;16.22;100.00;102299.75;5054459;28;20029;-41
2023/06/24 00:47:48;;;;;;;19.85;17.60;;;;;;;16.13;100.00;102290.81;5053610;28;20025;-43
2023/06/24 00:50:14;;;;;;;22.65;19.20;;;;;;;16.08;100.00;102300.19;5054474;28;20029;-41
2023/06/24 00:52:42;;;;;;;25.30;22.43;;;;;;;16.15;100.00;102302.97;5054172;28;20063;-45
2023/06/24 00:55:14;;;;;;;24.42;20.42;;;;;;;16.18;100.00;102297.84;5053564;28;20495;-42
2023/06/24 00:57:44;;;;;;;20.98;18.55;;;;;;;16.10;100.00;102303.75;5054131;28;20029;-42
2023/06/24 01:00:14;;;;;;;21.88;18.10;;;;;;;16.11;100.00;102305.50;5054342;28;20041;-47
2023/06/24 01:02:42;;;;;;;22.38;19.10;;;;;;;16.09;100.00;102294.16;5053376;28;20059;-42
2023/06/24 01:05:11;;;;;;;27.05;19.20;;;;;;;15.97;100.00;102293.78;5054005;28;20428;-42
2023/06/24 01:07:37;;;;;;;21.58;18.33;;;;;;;15.93;100.00;102287.63;5053702;28;20035;-42
2023/06/24 01:10:07;;;;;;;24.30;18.75;;;;;;;15.96;100.00;102287.72;5053668;28;20036;-46
2023/06/24 01:12:43;;;;;;;25.27;17.20;;;;;;;15.98;100.00;102285.16;5053468;28;20040;-40
2023/06/24 01:15:10;;;;;;;21.73;18.00;;;;;;;15.97;100.00;102283.38;5053891;28;20033;-45
2023/06/24 01:17:44;;;;;;;18.75;15.63;;;;;;;15.98;100.00;102279.06;5052914;28;20028;-47
2023/06/24 01:20:21;;;;;;;20.40;15.52;;;;;;;15.93;100.00;102278.94;5053686;28;20029;-46
2023/06/24 01:23:11;;;;;;;18.38;15.60;;;;;;;15.80;100.00;102275.94;5052758;28;20047;-46
2023/06/24 01:26:14;;;;;;;19.55;16.00;;;;;;;15.87;100.00;102276.13;5053487;28;20037;-44
2023/06/24 01:28:45;;;;;;;21.42;17.65;;;;;;;15.82;100.00;102275.13;5053077;28;20029;-47
2023/06/24 01:31:37;;;;;;;19.50;16.20;;;;;;;15.73;100.00;102273.09;5053024;28;20071;-46
2023/06/24 01:34:36;;;;;;;17.48;15.57;;;;;;;15.66;100.00;102274.63;5053599;28;20039;-45
2023/06/24 01:37:20;;;;;;;19.77;16.70;;;;;;;15.53;100.00;102280.25;5052653;28;20044;-45
2023/06/24 01:39:56;;;;;;;19.85;16.38;;;;;;;15.48;100.00;102270.59;5053094;28;20032;-45
2023/06/24 01:42:21;;;;;;;18.63;16.30;;;;;;;15.51;100.00;102263.75;5053306;28;20025;-44
2023/06/24 01:44:48;;;;;;;19.42;17.20;;;;;;;15.50;100.00;102272.38;5052579;28;20017;-47
2023/06/24 01:47:18;;;;;;;20.75;17.05;;;;;;;15.45;100.00;102267.91;5053339;28;20043;-45
2023/06/24 01:49:45;;;;;;;20.55;17.20;;;;;;;15.51;100.00;102267.22;5052822;28;20021;-42
2023/06/24 01:52:11;;;;;;;19.65;15.77;;;;;;;15.46;100.00;102264.47;5052519;28;20033;-43
2023/06/24 01:54:39;;;;;;;18.67;16.23;;;;;;;15.43;100.00;102269.56;5052219;28;20096;-46
2023/06/24 01:57:06;;;;;;;19.90;15.40;;;;;;;15.37;100.00;102264.16;5053090;28;20020;-46
2023/06/24 01:59:33;;;;;;;16.60;14.55;;;;;;;15.33;100.00;102272.69;5052435;28;20021;-47
2023/06/24 02:02:00;;;;;;;18.10;15.32;;;;;;;15.29;100.00;102265.66;5053076;28;20021;-46
2023/06/24 02:04:30;;;;;;;17.98;14.93;;;;;;;15.24;100.00;102269.81;5052572;28;20049;-45
2023/06/24 02:07:00;;;;;;;20.30;14.48;;;;;;;15.26;100.00;102260.31;5052433;28;20107;-45
2023/06/24 02:09:28;;;;;;;19.08;14.60;;;;;;;15.12;100.00;102263.38;5052773;28;20017;-45
2023/06/24 02:11:55;;;;;;;21.17;18.30;;;;;;;15.21;100.00;102257.59;5052274;28;20380;-47
2023/06/24 02:14:22;;;;;;;24.98;18.98;;;;;;;15.14;100.00;102256.53;5052961;28;20025;-45
2023/06/24 02:16:49;;;;;;;27.08;21.40;;;;;;;15.10;100.00;102257.22;5052778;28;20526;-45
2023/06/24 02:19:17;;;;;;;23.10;18.17;;;;;;;15.07;100.00;102254.53;5051996;28;20460;-45
2023/06/24 02:21:44;;;;;;;20.05;16.75;;;;;;;15.01;100.00;102256.03;5052384;28;20052;-46
2023/06/24 02:24:11;;;;;;;17.83;15.07;;;;;;;15.01;100.00;102256.91;5052839;28;20079;-45
2023/06/24 02:26:40;;;;;;;17.05;14.82;;;;;;;14.89;100.00;102261.72;5051618;28;20465;-44
2023/06/24 02:29:08;;;;;;;17.40;15.00;;;;;;;14.80;100.00;102257.94;5052569;28;20027;-46
2023/06/24 02:31:34;;;;;;;16.67;14.40;;;;;;;14.79;100.00;102263.09;5052147;28;20100;-44
2023/06/24 02:33:59;;;;;;;20.00;15.02;;;;;;;14.71;100.00;102254.16;5052160;28;20545;-44
2023/06/24 02:36:24;;;;;;;18.00;15.35;;;;;;;14.62;100.00;102259.88;5052288;28;20032;-45
2023/06/24 02:38:50;;;;;;;18.45;15.18;;;;;;;14.59;100.00;102260.66;5052602;28;20036;-44
2023/06/24 02:41:15;;;;;;;19.05;14.70;;;;;;;14.47;100.00;102258.50;5052153;28;20035;-46
2023/06/24 02:43:40;;;;;;;18.63;14.07;;;;;;;14.52;100.00;102262.97;5052143;28;20023;-47
2023/06/24 02:46:07;;;;;;;16.42;13.80;;;;;;;14.43;100.00;102264.38;5052387;28;20044;-45
2023/06/24 02:48:36;;;;;;;18.48;14.98;;;;;;;14.36;100.00;102262.41;5051624;28;20021;-46
2023/06/24 02:51:03;;;;;;;17.33;13.82;;;;;;;14.30;100.00;102259.59;5052636;28;20103;-45
2023/06/24 02:53:29;;;;;;;16.03;13.80;;;;;;;14.39;100.00;102256.44;5052031;28;20029;-44
2023/06/24 02:55:55;;;;;;;17.42;14.48;;;;;;;14.39;100.00;102257.31;5052083;28;20056;-47
2023/06/24 02:58:21;;;;;;;17.77;14.32;;;;;;;14.35;100.00;102258.03;5052495;28;20082;-45
2023/06/24 03:00:49;;;;;;;16.40;14.23;;;;;;;14.34;100.00;102269.22;5051928;28;20108;-45
2023/06/24 03:03:15;;;;;;;18.25;13.70;;;;;;;14.28;100.00;102266.41;5051909;28;20029;-44
2023/06/24 03:05:44;;;;;;;17.70;13.80;;;;;;;14.32;100.00;102273.50;5052432;28;20079;-46
2023/06/24 03:08:10;;;;;;;15.75;13.48;;;;;;;14.32;100.00;102276.09;5055675;28;20440;-43
2023/06/24 03:10:37;;;;;;;17.17;13.43;;;;;;;14.30;100.00;102277.72;5055752;28;20465;-42
2023/06/24 03:13:02;;;;;;;17.05;13.80;;;;;;;14.31;100.00;102275.19;5056032;28;20029;-45
2023/06/24 03:15:28;;;;;;;16.73;13.98;;;;;;;14.36;100.00;102270.19;5055108;28;20032;-45
2023/06/24 03:17:54;;;;;;;18.42;13.68;;;;;;;14.35;100.00;102273.59;5055967;28;20038;-43
2023/06/24 03:20:20;;;;;;;20.02;15.07;;;;;;;14.36;100.00;102272.78;5056011;28;20058;-45
2023/06/24 03:22:45;;;;;;;17.15;13.98;;;;;;;14.34;100.00;102269.22;5054891;28;20028;-42
2023/06/24 03:25:11;;;;;;;19.70;14.60;;;;;;;14.36;100.00;102269.28;5055919;28;20032;-43
2023/06/24 03:27:36;;;;;;;18.52;14.45;;;;;;;14.28;100.00;102266.41;5055238;28;20096;-41
2023/06/24 03:30:02;;;;;;;20.63;15.90;;;;;;;14.30;100.00;102263.03;5055247;28;20465;-41
2023/06/24 03:32:28;;;;;;;19.25;15.60;;;;;;;14.27;100.00;102255.16;5055317;28;20483;-42
2023/06/24 03:34:53;;;;;;;20.98;15.57;;;;;;;14.25;100.00;102261.13;5055397;28;20033;-41
2023/06/24 03:37:18;;;;;;;20.85;16.15;;;;;;;14.29;100.00;102265.59;5055302;28;20040;-43
2023/06/24 03:39:43;;;;;;;20.95;16.73;;;;;;;14.22;100.00;102264.47;5055928;28;20021;-41
2023/06/24 03:42:09;;;;;;;20.10;14.48;;;;;;;14.18;100.00;102264.28;5055503;28;20033;-44
2023/06/24 03:44:34;;;;;;;19.58;13.80;;;;;;;14.13;100.00;102275.38;5054661;28;20032;-44
2023/06/24 03:46:59;;;;;;;17.80;14.38;;;;;;;14.13;100.00;102266.75;5055603;28;20043;-44
2023/06/24 03:49:25;;;;;;;19.55;15.82;;;;;;;14.13;100.00;102265.00;5055090;28;20021;-41
2023/06/24 03:51:50;;;;;;;24.65;19.33;;;;;;;14.09;100.00;102276.09;5055028;28;20036;-44
2023/06/24 03:54:15;;;;;;;22.63;17.35;;;;;;;14.06;100.00;102277.69;5055453;28;20075;-43
2023/06/24 03:56:41;;;;;;;21.48;18.02;;;;;;;14.06;100.00;102273.41;5054688;28;20032;-42
2023/06/24 03:59:07;;;;;;;23.15;17.83;;;;;;;14.05;100.00;102281.13;5054720;28;20029;-46
2023/06/24 04:01:33;;;;;;;20.48;17.83;;;;;;;14.03;100.00;102281.03;5054713;28;20075;-47
2023/06/24 04:03:58;;;;;;;23.88;17.85;;;;;;;13.95;100.00;102282.47;5054860;28;20033;-43
2023/06/24 04:06:24;;;;;;;20.85;17.20;;;;;;;14.00;100.00;102283.53;5054536;28;20029;-42
2023/06/24 04:08:51;;;;;;;23.05;17.60;;;;;;;14.00;100.00;102288.72;5055367;28;20033;-41
2023/06/24 04:11:17;;;;;;;21.20;17.30;;;;;;;14.04;100.00;102285.41;5054481;28;20029;-44
2023/06/24 04:13:44;;;;;;;28.83;19.20;;;;;;;14.13;100.00;102283.16;5054615;28;20025;-44
2023/06/24 04:16:10;;;;;;;21.33;18.40;;;;;;;14.18;100.00;102278.16;5054865;28;20067;-42
2023/06/24 04:18:39;;;;;;;24.13;17.70;;;;;;;14.19;100.00;102277.34;5053390;28;20461;-44
2023/06/24 04:21:06;;;;;;;21.13;17.70;;;;;;;14.26;100.00;102281.03;5054796;28;20053;-44
2023/06/24 04:23:31;;;;;;;23.27;17.88;;;;;;;14.26;100.00;102276.72;5054508;28;20404;-44
2023/06/24 04:25:59;;;;;;;18.60;16.58;;;;;;;14.25;100.00;102280.16;5054112;28;20523;-43
2023/06/24 04:28:25;;;;;;;22.20;16.70;;;;;;;14.26;100.00;102286.22;5054549;28;20155;-42
2023/06/24 04:30:51;;;;;;;20.55;17.75;;;;;;;14.34;100.00;102284.78;5054245;28;20479;-44
2023/06/24 04:33:16;;;;;;;22.70;19.10;;;;;;;14.46;100.00;102285.25;5054145;28;20039;-45
2023/06/24 04:35:43;;;;;;;24.42;19.17;;;;;;;14.60;100.00;102277.09;5054394;28;20025;-42
2023/06/24 04:38:08;;;;;;;23.35;18.40;;;;;;;14.72;100.00;102282.75;5054288;28;20542;-41
2023/06/24 04:40:34;;;;;;;25.48;19.50;;;;;;;14.79;100.00;102276.06;5053601;28;20021;-42
2023/06/24 04:42:59;;;;;;;22.80;18.63;;;;;;;14.93;100.00;102279.16;5054629;28;20032;-42
2023/06/24 04:45:25;;;;;;;22.75;17.73;;;;;;;15.05;100.00;102282.16;5053787;28;20068;-46
2023/06/24 04:47:51;;;;;;;20.92;17.80;;;;;;;15.16;100.00;102285.13;5053917;28;20116;-43
2023/06/24 04:50:16;;;;;;;25.73;18.23;;;;;;;15.26;100.00;102289.81;5054309;28;20072;-42
2023/06/24 04:52:41;;;;;;;28.00;18.27;;;;;;;15.33;100.00;102296.06;5053714;28;20047;-46
2023/06/24 04:55:07;;;;;;;24.20;18.92;;;;;;;15.41;100.00;102292.00;5053841;28;20029;-42
2023/06/24 04:57:34;;;;;;;24.35;19.20;;;;;;;15.46;100.00;102295.63;5053824;28;20025;-40
2023/06/24 05:00:00;;;;;;;21.20;18.00;;;;;;;15.57;100.00;102289.91;5052706;28;20047;-44
2023/06/24 05:02:25;;;;;;;24.30;17.50;;;;;;;15.64;100.00;102289.28;5053443;28;20393;-46
2023/06/24 05:04:52;;;;;;;24.80;17.88;;;;;;;15.73;100.00;102294.75;5054226;28;20029;-46
2023/06/24 05:07:17;;;;;;;24.95;19.35;;;;;;;15.78;100.00;102287.13;5053707;28;20064;-45
2023/06/24 05:09:43;;;;;;;24.85;18.85;;;;;;;15.84;100.00;102295.16;5053217;28;20068;-42
2023/06/24 05:12:09;;;;;;;24.25;18.85;;;;;;;15.93;100.00;102286.72;5053859;28;20037;-42
2023/06/24 05:14:36;;;;;;;27.02;19.20;;;;;;;15.99;100.00;102286.91;5052876;28;20025;-43
2023/06/24 05:17:03;;;;;;;25.95;18.75;;;;;;;16.13;100.00;102285.59;5054009;28;20025;-41
2023/06/24 05:19:28;;;;;;;27.08;19.17;;;;;;;16.20;100.00;102289.25;5053425;28;20060;-45
2023/06/24 05:21:53;;;;;;;28.52;18.70;;;;;;;16.25;100.00;102289.41;5052865;28;20080;-42
2023/06/24 05:24:19;;;;;;;28.58;20.42;;;;;;;16.32;100.00;102283.56;5053743;28;20040;-44
2023/06/24 05:26:51;;;;;;;28.38;20.27;;;;;;;16.39;100.00;102292.41;5053217;28;20112;-44
2023/06/24 05:29:17;;;;;;;26.38;19.42;;;;;;;16.44;100.00;102286.50;5052301;28;20376;-46
2023/06/24 05:31:43;;;;;;;29.02;19.75;;;;;;;16.49;100.00;102281.44;5053260;28;20033;-44
2023/06/24 05:34:08;;;;;;;23.67;18.35;;;;;;;16.54;100.00;102284.16;5053529;28;20021;-42
2023/06/24 05:36:34;;;;;;;27.75;19.50;;;;;;;16.59;100.00;102290.38;5052667;28;20048;-46
2023/06/24 05:38:59;;;;;;;23.58;18.08;;;;;;;16.62;100.00;102291.34;5053355;28;20469;-44
2023/06/24 05:41:25;;;;;;;28.05;19.88;;;;;;;16.70;100.00;102299.34;5052866;28;20021;-44
2023/06/24 05:44:04;;;;;;;27.63;19.33;;;;;;;16.75;100.00;102300.38;5052926;28;20025;-43
2023/06/24 05:46:30;;;;;;;27.65;18.52;;;;;;;16.80;100.00;102297.91;5053156;28;20060;-46
2023/06/24 05:48:55;;;;;;;23.25;17.92;;;;;;;16.83;100.00;102291.91;5052965;28;20025;-41
2023/06/24 05:51:21;;;;;;;26.98;18.00;;;;;;;16.87;100.00;102298.94;5052647;28;20021;-42
2023/06/24 05:53:46;;;;;;;26.63;18.83;;;;;;;16.93;100.00;102304.34;5053061;28;20025;-44
2023/06/24 05:56:11;;;;;;;22.98;17.98;;;;;;;16.98;100.00;102294.94;5052756;28;20422;-47
2023/06/24 05:58:37;;;;;;;23.13;18.65;;;;;;;17.04;100.00;102295.09;5052365;28;20021;-45
2023/06/24 06:01:02;;;;;;;23.77;18.23;;;;;;;17.09;100.00;102298.72;5052926;28;20024;-41
2023/06/24 06:03:27;;;;;;;23.63;17.80;;;;;;;17.18;100.00;102297.16;5052535;28;20056;-47
2023/06/24 06:05:53;;;;;;;22.48;16.77;;;;;;;17.26;100.00;102290.41;5052652;28;20036;-43
2023/06/24 06:08:18;;;;;;;23.73;17.50;;;;;;;17.37;100.00;102299.38;5052856;28;20037;-46
2023/06/24 06:10:43;;;;;;;27.08;18.73;;;;;;;17.42;100.00;102297.78;5052315;28;20048;-46
2023/06/24 06:13:09;;;;;;;21.17;17.55;;;;;;;17.42;100.00;102300.38;5052378;28;20555;-46
2023/06/24 06:15:34;;;;;;;22.08;17.83;;;;;;;17.50;100.00;102302.31;5053309;28;20397;-42
2023/06/24 06:17:59;;;;;;;23.35;17.67;;;;;;;17.57;100.00;102296.38;5052225;28;20508;-47
2023/06/24 06:20:25;;;;;;;22.02;15.75;;;;;;;17.67;99.36;102298.38;5052345;28;20041;-42
2023/06/24 06:22:51;;;;;;;22.77;15.75;;;;;;;17.77;97.92;102305.56;5052766;28;20021;-42
2023/06/24 06:25:16;;;;;;;20.45;15.30;;;;;;;17.81;94.15;102305.66;5051906;28;20167;-44
2023/06/24 06:27:41;;;;;;;17.60;13.77;;;;;;;17.85;94.37;102310.94;5052435;28;20124;-45
2023/06/24 06:30:07;;;;;;;22.00;15.95;;;;;;;17.99;98.79;102315.66;5052524;28;20488;-43
2023/06/24 06:32:32;;;;;;;21.60;15.63;;;;;;;17.96;93.76;102308.63;5051909;28;20369;-46
2023/06/24 06:34:58;;;;;;;20.83;15.85;;;;;;;17.99;92.35;102306.06;5052598;28;20025;-44
2023/06/24 06:37:23;;;;;;;22.48;14.88;;;;;;;18.06;93.54;102317.53;5052149;28;20025;-42
2023/06/24 06:39:48;;;;;;;20.33;15.45;;;;;;;18.12;94.43;102317.66;5052586;28;20047;-46
2023/06/24 06:42:15;;;;;;;23.70;15.75;;;;;;;18.20;92.38;102315.22;5056542;28;20100;-42
2023/06/24 06:44:40;;;;;;;20.63;15.13;;;;;;;18.28;92.73;102316.25;5056251;28;20025;-46
2023/06/24 06:47:06;;;;;;;24.05;15.80;;;;;;;18.31;92.29;102326.78;5056187;28;20807;-44
2023/06/24 06:49:31;;;;;;;20.48;14.52;;;;;;;18.42;92.95;102316.56;5056353;28;20040;-41
2023/06/24 06:51:57;;;;;;;20.60;13.80;;;;;;;18.52;91.79;102320.25;5056329;28;20025;-45
2023/06/24 06:54:22;;;;;;;18.65;13.80;;;;;;;18.64;89.74;102323.06;5055727;28;20416;-42
2023/06/24 06:56:47;;;;;;;23.23;13.73;;;;;;;18.73;91.26;102328.50;5056394;28;20029;-45
2023/06/24 06:59:13;;;;;;;17.50;12.05;;;;;;;18.84;89.33;102333.94;5056391;28;20570;-44
2023/06/24 07:01:38;;;;;;;17.33;12.32;;;;;;;18.89;88.53;102332.31;5055596;28;20047;-44
2023/06/24 07:04:04;;;;;;;16.33;11.63;;;;;;;19.02;86.49;102336.03;5056222;28;20021;-44
2023/06/24 07:06:32;;;;;;;17.70;10.55;;;;;;;19.06;85.10;102340.47;5055745;28;20029;-47
2023/06/24 07:08:57;;;;;;;15.00;10.55;;;;;;;19.13;86.43;102343.19;5055676;28;20103;-46
2023/06/24 07:11:23;;;;;;;14.10;10.32;;;;;;;19.20;83.77;102337.22;5055640;28;20372;-43
2023/06/24 07:13:50;;;;;;;14.43;9.73;;;;;;;19.20;81.88;102342.47;5056064;28;20028;-48
2023/06/24 07:16:16;;;;;;;12.48;9.27;;;;;;;19.27;82.49;102346.91;5055585;28;20025;-45
2023/06/24 07:18:41;;;;;;;14.15;10.15;;;;;;;19.44;82.89;102343.72;5055665;28;20023;-42
2023/06/24 07:21:06;;;;;;;14.50;10.32;;;;;;;19.45;82.44;102341.13;5055578;28;20041;-46
2023/06/24 07:23:32;;;;;;;13.60;9.60;;;;;;;19.57;83.27;102348.28;5055131;28;20110;-47
2023/06/24 07:25:57;;;;;;;14.90;10.23;;;;;;;19.70;81.34;102350.25;5055851;28;20017;-46
2023/06/24 07:28:22;;;;;;;15.57;11.32;;;;;;;19.72;80.12;102345.03;5055036;28;20112;-43
2023/06/24 07:30:48;;;;;;;16.60;10.45;;;;;;;19.73;78.16;102347.69;5055970;28;20029;-46
2023/06/24 07:33:13;;;;;;;14.38;10.15;;;;;;;19.82;80.23;102351.31;5055611;28;20028;-43
2023/06/24 07:35:38;;;;;;;14.75;9.88;;;;;;;19.85;77.13;102346.16;5054950;28;20075;-44
2023/06/24 07:38:04;;;;;;;14.65;9.60;;;;;;;19.96;77.41;102348.91;5055778;28;20025;-42
2023/06/24 07:40:29;;;;;;;14.57;9.80;;;;;;;20.10;75.86;102346.50;5054910;28;20790;-46
2023/06/24 07:42:54;;;;;;;14.10;9.68;;;;;;;20.15;74.82;102350.94;5054875;28;20025;-42
2023/06/24 07:45:20;;;;;;;14.20;9.73;;;;;;;20.21;74.93;102351.03;5055592;28;20025;-42
2023/06/24 07:47:45;;;;;;;13.25;9.68;;;;;;;20.25;75.30;102349.31;5055118;28;20100;-44
2023/06/24 07:50:11;;;;;;;12.82;8.35;;;;;;;20.30;70.66;102345.03;5054843;28;20068;-44
2023/06/24 07:52:37;;;;;;;11.57;8.10;;;;;;;20.55;72.51;102345.34;5054268;28;20055;-43
2023/06/24 07:55:03;;;;;;;12.25;8.50;;;;;;;20.52;70.37;102345.31;5055057;28;20028;-44
2023/06/24 07:57:30;;;;;;;11.80;7.95;;;;;;;20.59;67.99;102352.34;5054519;28;20384;-42
2023/06/24 07:59:55;;;;;;;10.77;7.32;;;;;;;20.74;67.76;102346.47;5055464;28;20036;-41
2023/06/24 08:02:21;;;;;;;12.32;7.72;;;;;;;20.84;68.08;102347.47;5054910;28;20419;-43
2023/06/24 08:04:46;;;;;;;10.63;7.70;;;;;;;20.97;67.53;102343.22;5054385;28;20033;-46
2023/06/24 08:07:11;;;;;;;10.68;7.57;;;;;;;20.99;67.17;102341.47;5055101;28;20032;-42
2023/06/24 08:09:37;;;;;;;11.20;7.95;;;;;;;21.17;70.52;102339.03;5054497;28;20017;-45
2023/06/24 08:12:03;;;;;;;13.65;9.18;;;;;;;21.13;67.74;102339.00;5054372;28;20044;-43
2023/06/24 08:14:28;;;;;;;14.30;9.05;;;;;;;21.18;68.24;102334.69;5054854;28;20102;-41
2023/06/24 08:16:53;;;;;;;13.02;9.35;;;;;;;21.30;69.44;102334.75;5054648;28;20119;-42
2023/06/24 08:19:19;;;;;;;13.35;7.60;;;;;;;21.36;68.72;102332.22;5054382;28;20053;-42
2023/06/24 08:21:44;;;;;;;14.02;7.55;;;;;;;21.54;67.06;102330.59;5054384;28;20041;-45
2023/06/24 08:24:10;;;;;;;10.05;6.57;;;;;;;21.60;61.46;102337.66;5054493;28;20048;-44
2023/06/24 08:26:35;;;;;;;10.65;6.38;;;;;;;21.73;61.56;102330.75;5054125;28;20028;-45
2023/06/24 08:29:00;;;;;;;11.07;5.20;;;;;;;21.91;62.98;102330.00;5055109;28;20361;-46
2023/06/24 08:31:28;;;;;;;8.38;5.07;;;;;;;21.98;60.91;102324.78;5053919;28;20021;-46
2023/06/24 08:33:54;;;;;;;7.35;3.80;;;;;;;22.04;53.53;102321.34;5054131;28;20106;-42
2023/06/24 08:36:22;;;;;;;8.60;3.63;;;;;;;22.10;53.29;102321.34;5054309;28;20069;-42
2023/06/24 08:38:47;;;;;;;8.38;4.05;;;;;;;22.17;52.79;102317.91;5053997;28;20024;-45
2023/06/24 08:41:13;;;;;;;9.50;3.97;;;;;;;22.27;53.09;102318.84;5054390;28;20029;-46
2023/06/24 08:43:39;;;;;;;8.60;3.92;;;;;;;22.34;52.94;102315.34;5053996;28;20045;-48
2023/06/24 08:46:05;;;;;;;5.90;3.17;;;;;;;22.34;49.67;102315.34;5053869;28;20539;-46
2023/06/24 08:48:30;;;;;;;6.95;3.63;;;;;;;22.39;50.39;102317.13;5054089;28;20033;-42
2023/06/24 08:50:58;;;;;;;7.13;2.92;;;;;;;22.48;48.30;102322.44;5054022;28;20044;-48
2023/06/24 08:53:26;;;;;;;6.45;3.50;;;;;;;22.61;49.83;102318.97;5053305;28;20112;-43
2023/06/24 08:55:53;;;;;;;5.85;3.45;;;;;;;22.75;50.08;102326.00;5054365;28;20025;-46
2023/06/24 08:58:19;;;;;;;;;;;;;;;22.79;50.21;102317.28;5054253;28;20469;-48
2023/06/24 09:00:44;;;;;;;6.30;3.43;;;;;;;22.90;50.20;102325.16;5053333;28;19912;-46
2023/06/24 09:03:10;;;;;;;8.15;3.83;;;;;;;22.88;49.79;102324.28;5053461;28;20605;-42
2023/06/24 09:05:35;;;;;;;7.13;3.40;;;;;;;22.97;48.06;102317.28;5052921;28;20040;-46
2023/06/24 09:08:00;;;;;;;6.93;3.35;;;;;;;22.99;47.89;102315.53;5053303;28;20488;-47
2023/06/24 09:10:34;;;;;;;5.35;3.30;;;;;;;23.07;48.24;102317.28;5053446;28;20027;-48
2023/06/24 09:13:06;;;;;;;9.30;4.03;;;;;;;23.25;50.42;102319.97;5053625;28;20369;-45
2023/06/24 09:15:35;;;;;;;7.38;4.05;;;;;;;23.35;50.25;102324.34;5052894;28;20041;-42
2023/06/24 09:18:03;;;;;;;7.07;3.28;;;;;;;23.39;49.25;102319.97;5053577;28;20048;-44
2023/06/24 09:20:30;;;;;;;7.80;3.70;;;;;;;23.54;50.36;102305.94;5052623;28;20453;-47
2023/06/24 09:23:00;;;;;;;6.03;3.30;;;;;;;23.74;49.37;102307.66;5053147;28;20021;-42
2023/06/24 09:25:25;;;;;;;6.10;3.47;;;;;;;23.77;45.77;102305.88;5053237;28;20126;-47
2023/06/24 09:27:52;;;;;;;7.05;4.07;;;;;;;23.89;46.49;102307.59;5053016;28;20469;-44
2023/06/24 09:30:21;;;;;;;9.43;4.80;;;;;;;24.03;49.36;102301.44;5053502;28;20024;-46
2023/06/24 09:32:48;;;;;;;8.48;3.85;;;;;;;23.99;47.45;102298.84;5052654;28;20033;-47
2023/06/24 09:35:14;;;;;;;8.65;4.28;;;;;;;23.95;44.93;102298.84;5053108;28;20025;-48
2023/06/24 09:37:40;;;;;;;7.25;3.92;;;;;;;23.96;45.17;102290.06;5053233;28;20044;-44
2023/06/24 09:40:08;;;;;;;7.75;4.30;;;;;;;23.98;44.46;102299.69;5053145;28;20029;-43
2023/06/24 09:42:34;;;;;;;7.28;3.72;;;;;;;24.10;45.83;102301.41;5052539;28;20029;-43
2023/06/24 09:45:04;;;;;;;8.30;4.03;;;;;;;24.34;46.51;102291.66;5053155;28;20033;-47
2023/06/24 09:47:30;;;;;;;6.65;3.25;;;;;;;24.21;44.17;102285.59;5052624;28;20112;-49
2023/06/24 09:49:55;;;;;;;11.88;4.32;;;;;;;24.28;42.50;102282.00;5052794;28;20410;-44
2023/06/24 09:52:22;;;;;;;7.95;4.32;;;;;;;24.32;43.66;102283.78;5053236;28;20465;-46
2023/06/24 09:54:51;;;;;;;8.57;4.15;;;;;;;24.29;42.29;102277.63;5052761;28;20043;-46
2023/06/24 09:57:24;;;;;;;10.98;5.03;;;;;;;24.37;43.91;102275.84;5052491;28;20078;-44
2023/06/24 09:59:51;;;;;;;7.38;3.50;;;;;;;24.81;44.50;102281.75;5052816;28;20485;-44
2023/06/24 10:02:18;;;;;;;5.18;3.10;;;;;;;24.83;40.88;102279.97;5052964;28;20029;-45
2023/06/24 10:04:46;;;;;;;5.85;3.47;;;;;;;25.18;42.24;102286.72;5052182;28;20021;-47
2023/06/24 10:07:12;;;;;;;8.65;3.92;;;;;;;25.44;40.51;102283.00;5053130;28;20032;-44
2023/06/24 10:09:38;;;;;;;6.30;3.15;;;;;;;25.34;40.95;102281.31;5052292;28;20436;-47
2023/06/24 10:12:04;;;;;;;6.43;4.10;;;;;;;25.25;40.19;102288.41;5052346;28;20524;-43
2023/06/24 10:14:30;;;;;;;8.35;5.38;;;;;;;25.46;42.36;102286.50;5052084;28;20197;-47
2023/06/24 10:17:05;;;;;;;24.20;6.45;;;;;;;25.85;43.90;102283.44;5052492;28;20465;-47
2023/06/24 10:19:38;;;;;;;8.15;3.97;;;;;;;26.40;41.31;102281.91;5052382;28;20503;-46
2023/06/24 10:22:07;;;;;;;7.25;4.53;;;;;;;26.26;39.68;102288.25;5052394;28;20434;-44
2023/06/24 10:24:35;;;;;;;9.75;4.15;;;;;;;26.84;39.27;102277.72;5052053;28;20037;-48
2023/06/24 10:27:14;;;;;;;23.67;5.50;;;;;;;27.24;38.78;102284.13;5052546;28;20035;-47
2023/06/24 10:29:45;;;;;;;45.22;5.93;;;;;;;28.03;38.02;102277.38;5052357;28;20041;-47
2023/06/24 10:32:10;;;;;;;12.43;4.45;;;;;;;28.96;36.46;102281.50;5052126;28;20029;-47
2023/06/24 10:34:44;;;;;;;8.85;4.38;;;;;;;29.81;34.66;102283.66;5052100;28;20021;-47
2023/06/24 10:37:20;;;;;;;11.20;5.13;;;;;;;29.80;34.45;102274.84;5052420;28;20096;-47
2023/06/24 10:39:56;;;;;;;11.70;4.90;;;;;;;29.91;33.28;102276.34;5051993;28;20032;-48
2023/06/24 10:42:32;;;;;;;11.97;4.40;;;;;;;29.81;34.10;102275.69;5052724;28;20267;-47
2023/06/24 10:45:00;;;;;;;9.18;4.40;;;;;;;29.44;33.77;102272.31;5052538;28;20037;-43
2023/06/24 10:47:27;;;;;;;8.20;4.90;;;;;;;29.80;33.33;102269.53;5051607;28;20048;-43
2023/06/24 10:49:53;;;;;;;;;;;;;;;30.98;36.52;102271.22;5052665;28;20087;-48
2023/06/24 10:52:21;;;;;;;6.33;4.03;;;;;;;31.27;31.73;102272.94;5052097;28;20311;-47
2023/06/24 10:54:47;;;;;;;6.43;4.10;;;;;;;31.14;30.42;102272.47;5052060;28;20025;-44
2023/06/24 10:57:12;;;;;;;14.23;4.37;;;;;;;32.07;32.14;102269.09;5052255;28;20104;-44
2023/06/24 10:59:42;;;;;;;7.23;4.37;;;;;;;31.80;30.37;102271.03;5051756;28;20018;-47
2023/06/24 11:02:14;;;;;;;8.95;4.53;;;;;;;32.25;29.23;102272.00;5052290;28;20029;-48
2023/06/24 11:04:43;;;;;;;9.35;4.68;;;;;;;33.05;29.10;102267.88;5051802;28;20055;-48
2023/06/24 11:07:09;;;;;;;6.95;3.97;;;;;;;33.41;29.21;102264.56;5052068;28;20036;-47
2023/06/24 11:09:34;;;;;;;6.50;3.73;;;;;;;33.40;29.42;102263.69;5052132;28;20024;-45